createdAt,value
2023-12-11T00:00:35.769Z,45.58
2023-12-11T00:03:23.173Z,40.97
2023-12-11T00:05:50.733Z,43.55
2023-12-11T00:08:17.904Z,46.63
2023-12-11T00:10:45.680Z,43.10
2023-12-11T00:13:12.965Z,41.88
2023-12-11T00:15:40.671Z,46.75
2023-12-11T00:18:08.061Z,44.72
2023-12-11T00:20:35.634Z,38.20
2023-12-11T00:23:05.020Z,42.97
2023-12-11T00:25:32.785Z,39.03
2023-12-11T00:28:00.015Z,38.47
2023-12-11T00:30:27.614Z,41.60
2023-12-11T00:32:54.881Z,42.65
2023-12-11T00:35:22.377Z,40.78
2023-12-11T00:37:49.484Z,38.85
2023-12-11T00:40:17.941Z,41.63
2023-12-11T00:42:45.306Z,43.20
2023-12-11T00:45:15.875Z,42.35
2023-12-11T00:47:43.086Z,46.22
2023-12-11T00:50:10.706Z,42.47
2023-12-11T00:52:37.989Z,39.40
2023-12-11T00:55:05.929Z,46.67
2023-12-11T00:57:33.514Z,43.55
2023-12-11T01:00:01.399Z,43.63
2023-12-11T01:02:28.893Z,43.42
2023-12-11T01:04:57.195Z,38.97
2023-12-11T01:07:24.549Z,41.22
2023-12-11T01:09:54.209Z,40.60
2023-12-11T01:12:21.337Z,38.85
2023-12-11T01:14:48.787Z,39.80
2023-12-11T01:17:37.202Z,38.67
2023-12-11T01:20:04.009Z,43.58
2023-12-11T01:22:31.180Z,38.55
2023-12-11T01:25:02.860Z,41.83
2023-12-11T01:27:31.029Z,43.60
2023-12-11T01:29:58.692Z,38.35
2023-12-11T01:32:26.005Z,34.33
2023-12-11T01:34:53.860Z,38.90
2023-12-11T01:37:21.133Z,37.95
2023-12-11T01:39:48.744Z,38.58
2023-12-11T01:42:16.115Z,40.53
2023-12-11T01:44:43.722Z,35.75
2023-12-11T01:47:11.282Z,38.60
2023-12-11T01:49:39.854Z,43.10
2023-12-11T01:52:10.616Z,33.10
2023-12-11T01:54:40.244Z,36.22
2023-12-11T01:57:08.521Z,40.13
2023-12-11T01:59:37.039Z,40.40
2023-12-11T02:02:04.854Z,34.75
2023-12-11T02:04:34.072Z,36.08
2023-12-11T02:07:01.405Z,38.28
2023-12-11T02:09:29.238Z,37.65
2023-12-11T02:11:59.455Z,35.53
2023-12-11T02:14:27.029Z,39.80
2023-12-11T02:16:54.288Z,35.20
2023-12-11T02:19:21.894Z,40.70
2023-12-11T02:21:49.198Z,38.53
2023-12-11T02:24:23.423Z,40.58
2023-12-11T02:26:50.672Z,60.95
2023-12-11T02:29:18.412Z,56.10
2023-12-11T02:31:45.601Z,44.47
2023-12-11T02:34:13.201Z,41.20
2023-12-11T02:36:40.412Z,46.88
2023-12-11T02:39:08.097Z,42.40
2023-12-11T02:41:35.224Z,44.30
2023-12-11T02:44:02.624Z,41.75
2023-12-11T02:46:29.816Z,40.33
2023-12-11T02:48:57.337Z,42.00
2023-12-11T02:51:24.550Z,40.15
2023-12-11T02:53:52.666Z,38.53
2023-12-11T02:56:19.779Z,39.03
2023-12-11T02:58:47.296Z,37.38
2023-12-11T03:01:14.649Z,32.08
2023-12-11T03:03:42.679Z,33.67
2023-12-11T03:06:18.512Z,30.40
2023-12-11T03:08:46.104Z,30.67
2023-12-11T03:11:13.930Z,29.80
2023-12-11T03:13:41.326Z,30.13
2023-12-11T03:18:42.900Z,31.88
2023-12-11T03:21:10.391Z,30.88
2023-12-11T03:23:39.790Z,28.75
2023-12-11T03:26:07.487Z,29.25
2023-12-11T03:28:34.907Z,26.48
2023-12-11T03:31:02.229Z,27.80
2023-12-11T03:33:29.665Z,30.73
2023-12-11T03:35:56.782Z,29.05
2023-12-11T03:38:24.247Z,27.42
2023-12-11T03:40:51.799Z,25.13
2023-12-11T03:43:19.456Z,23.38
2023-12-11T03:45:47.516Z,23.25
2023-12-11T03:48:15.236Z,21.67
2023-12-11T03:50:42.444Z,21.70
2023-12-11T03:53:11.499Z,21.92
2023-12-11T03:55:38.702Z,20.48
2023-12-11T03:58:06.303Z,19.75
2023-12-11T04:00:33.544Z,19.25
2023-12-11T04:03:01.080Z,18.23
2023-12-11T04:05:28.333Z,17.70
2023-12-11T04:07:55.912Z,18.15
2023-12-11T04:10:23.145Z,21.55
2023-12-11T04:12:50.748Z,23.55
2023-12-11T04:15:17.969Z,21.10
2023-12-11T04:17:45.561Z,16.13
2023-12-11T04:20:12.892Z,14.38
2023-12-11T04:22:40.465Z,14.48
2023-12-11T04:25:08.148Z,15.13
2023-12-11T04:27:35.825Z,14.48
2023-12-11T04:30:03.142Z,14.57
2023-12-11T04:32:34.349Z,14.05
2023-12-11T04:35:01.733Z,13.95
2023-12-11T04:37:29.525Z,14.20
2023-12-11T04:39:57.111Z,12.80
2023-12-11T04:42:24.567Z,12.93
2023-12-11T04:44:52.475Z,12.80
2023-12-11T04:47:19.980Z,12.85
2023-12-11T04:49:47.377Z,13.57
2023-12-11T04:52:17.100Z,13.68
2023-12-11T04:54:44.359Z,13.10
2023-12-11T04:57:11.858Z,13.02
2023-12-11T04:59:40.313Z,15.05
2023-12-11T05:02:09.426Z,17.30
2023-12-11T05:04:36.615Z,15.98
2023-12-11T05:07:04.538Z,18.98
2023-12-11T05:09:31.654Z,19.10
2023-12-11T05:11:59.253Z,19.75
2023-12-11T05:14:26.473Z,16.85
2023-12-11T05:16:54.428Z,18.40
2023-12-11T05:19:22.095Z,17.55
2023-12-11T05:21:49.601Z,17.70
2023-12-11T05:24:19.251Z,18.27
2023-12-11T05:26:46.682Z,18.15
2023-12-11T05:29:13.777Z,18.05
2023-12-11T05:31:41.395Z,18.45
2023-12-11T05:34:08.815Z,18.90
2023-12-11T05:36:36.524Z,21.88
2023-12-11T05:39:03.933Z,22.55
2023-12-11T05:41:33.571Z,21.42
2023-12-11T05:44:00.756Z,21.60
2023-12-11T05:46:28.411Z,21.75
2023-12-11T05:48:55.632Z,22.95
2023-12-11T05:51:24.303Z,20.75
2023-12-11T05:53:51.548Z,22.92
2023-12-11T05:56:19.234Z,22.95
2023-12-11T05:58:46.344Z,25.33
2023-12-11T06:01:13.964Z,24.02
2023-12-11T06:03:41.208Z,24.17
2023-12-11T06:06:18.835Z,24.05
2023-12-11T06:08:46.526Z,25.58
2023-12-11T06:11:13.969Z,27.42
2023-12-11T06:13:41.267Z,25.58
2023-12-11T06:16:10.163Z,23.15
2023-12-11T06:18:39.570Z,22.40
2023-12-11T06:21:07.268Z,23.55
2023-12-11T06:23:34.464Z,20.83
2023-12-11T06:26:01.894Z,22.40
2023-12-11T06:28:29.184Z,21.45
2023-12-11T06:30:56.729Z,22.23
2023-12-11T06:33:23.906Z,21.13
2023-12-11T06:35:51.424Z,21.40
2023-12-11T06:38:18.633Z,20.67
2023-12-11T06:40:46.116Z,22.45
2023-12-11T06:43:13.345Z,21.77
2023-12-11T06:45:41.276Z,24.63
2023-12-11T06:48:08.530Z,24.00
2023-12-11T06:50:36.604Z,27.50
2023-12-11T06:53:03.795Z,25.83
2023-12-11T06:55:31.281Z,29.05
2023-12-11T06:57:58.543Z,29.05
2023-12-11T07:00:26.694Z,27.77
2023-12-11T07:02:53.871Z,28.25
2023-12-11T07:05:21.550Z,29.75
2023-12-11T07:07:48.941Z,28.80
2023-12-11T07:10:16.424Z,28.48
2023-12-11T07:12:47.319Z,27.15
2023-12-11T07:15:15.242Z,50.97
2023-12-11T07:17:42.592Z,40.30
2023-12-11T07:20:12.616Z,32.13
2023-12-11T07:22:39.938Z,27.63
2023-12-11T07:25:07.795Z,29.70
2023-12-11T07:27:37.859Z,28.05
2023-12-11T07:30:06.115Z,28.30
2023-12-11T07:32:33.249Z,29.13
2023-12-11T07:35:01.725Z,28.95
2023-12-11T07:37:29.740Z,30.15
2023-12-11T07:39:57.404Z,28.92
2023-12-11T07:42:24.622Z,29.73
2023-12-11T07:44:52.169Z,30.27
2023-12-11T07:47:19.420Z,29.90
2023-12-11T07:49:46.911Z,28.23
2023-12-11T07:52:14.122Z,36.15
2023-12-11T07:54:41.802Z,64.60
2023-12-11T07:57:09.284Z,39.63
2023-12-11T07:59:36.734Z,51.30
2023-12-11T08:02:04.224Z,58.60
2023-12-11T08:04:31.997Z,92.05
2023-12-11T08:06:59.270Z,117.05
2023-12-11T08:09:27.824Z,83.15
2023-12-11T08:11:55.020Z,59.40
2023-12-11T08:14:22.526Z,67.95
2023-12-11T08:16:49.673Z,44.90
2023-12-11T08:19:17.220Z,39.17
2023-12-11T08:21:44.466Z,39.30
2023-12-11T08:24:11.977Z,82.88
2023-12-11T08:26:39.559Z,107.57
2023-12-11T08:29:07.475Z,82.90
2023-12-11T08:31:34.596Z,56.60
2023-12-11T08:34:02.574Z,47.88
2023-12-11T08:36:29.727Z,142.40
2023-12-11T08:38:57.288Z,168.43
2023-12-11T08:41:24.483Z,75.65
2023-12-11T08:43:51.935Z,51.85
2023-12-11T08:46:19.269Z,84.03
2023-12-11T08:48:47.099Z,95.03
2023-12-11T08:51:14.425Z,67.05
2023-12-11T08:53:41.894Z,45.80
2023-12-11T08:56:09.046Z,50.42
2023-12-11T08:58:37.656Z,44.72
2023-12-11T09:01:05.226Z,33.45
2023-12-11T09:03:33.875Z,32.80
2023-12-11T09:06:01.289Z,33.17
2023-12-11T09:08:28.847Z,33.80
2023-12-11T09:10:56.145Z,31.20
2023-12-11T09:13:26.537Z,32.00
2023-12-11T09:15:55.965Z,29.00
2023-12-11T09:18:23.570Z,27.75
2023-12-11T09:20:51.054Z,30.70
2023-12-11T09:23:18.679Z,30.77
2023-12-11T09:25:45.995Z,38.35
2023-12-11T09:28:13.623Z,70.32
2023-12-11T09:30:40.822Z,40.65
2023-12-11T09:33:11.817Z,75.88
2023-12-11T09:35:41.084Z,37.95
2023-12-11T09:38:08.696Z,57.65
2023-12-11T09:40:36.551Z,53.80
2023-12-11T09:43:04.485Z,36.25
2023-12-11T09:45:32.240Z,30.77
2023-12-11T09:48:08.210Z,29.35
2023-12-11T09:50:41.522Z,32.63
2023-12-11T09:53:10.154Z,29.90
2023-12-11T09:55:37.486Z,29.25
2023-12-11T09:58:05.776Z,26.20
2023-12-11T10:00:34.016Z,26.08
2023-12-11T10:03:06.739Z,26.63
2023-12-11T10:05:36.453Z,27.35
2023-12-11T10:10:34.549Z,27.05
2023-12-11T10:13:02.536Z,28.55
2023-12-11T10:15:32.280Z,26.48
2023-12-11T10:18:06.271Z,27.35
2023-12-11T10:20:35.368Z,25.95
2023-12-11T10:23:24.845Z,25.23
2023-12-11T10:25:54.664Z,24.75
2023-12-11T10:28:28.273Z,23.83
2023-12-11T10:31:02.661Z,27.17
2023-12-11T10:33:34.781Z,26.38
2023-12-11T10:36:11.270Z,28.08
2023-12-11T10:38:42.820Z,28.17
2023-12-11T10:41:25.341Z,28.77
2023-12-11T10:44:07.777Z,29.90
2023-12-11T10:46:40.690Z,27.52
2023-12-11T10:49:08.604Z,26.60
2023-12-11T10:51:37.972Z,27.48
2023-12-11T10:54:05.580Z,25.83
2023-12-11T10:56:33.521Z,27.90
2023-12-11T10:59:01.591Z,30.85
2023-12-11T11:01:29.303Z,28.40
2023-12-11T11:03:57.179Z,27.42
2023-12-11T11:06:25.993Z,28.40
2023-12-11T11:08:59.246Z,30.05
2023-12-11T11:11:30.292Z,26.38
2023-12-11T11:14:19.025Z,26.38
2023-12-11T11:16:57.018Z,29.20
2023-12-11T11:19:28.755Z,30.10
2023-12-11T11:22:31.276Z,23.10
2023-12-11T11:25:32.230Z,22.30
2023-12-11T11:28:00.304Z,26.50
2023-12-11T11:30:43.179Z,22.80
2023-12-11T11:33:10.854Z,25.10
2023-12-11T11:35:50.295Z,25.20
2023-12-11T11:38:19.852Z,22.30
2023-12-11T11:40:49.813Z,26.00
2023-12-11T11:45:46.287Z,28.83
2023-12-11T11:48:13.806Z,40.70
2023-12-11T11:50:53.461Z,52.05
2023-12-11T11:53:22.111Z,53.35
2023-12-11T11:55:49.915Z,38.67
2023-12-11T11:58:17.429Z,42.03
2023-12-11T12:00:46.945Z,38.78
2023-12-11T12:03:17.011Z,41.53
2023-12-11T12:05:57.356Z,36.38
2023-12-11T12:08:24.899Z,38.28
2023-12-11T12:10:57.194Z,35.15
2023-12-11T12:13:24.492Z,37.15
2023-12-11T12:15:53.318Z,32.90
2023-12-11T12:18:20.610Z,30.08
2023-12-11T12:21:04.826Z,30.17
2023-12-11T12:23:32.423Z,26.40
2023-12-11T12:26:02.488Z,30.95
2023-12-11T12:28:29.981Z,31.40
2023-12-11T12:30:57.883Z,30.13
2023-12-11T12:33:26.062Z,32.70
2023-12-11T12:35:54.008Z,72.75
2023-12-11T12:38:22.648Z,47.88
2023-12-11T12:40:50.553Z,43.22
2023-12-11T12:43:18.047Z,33.75
2023-12-11T12:45:46.008Z,36.72
2023-12-11T12:48:14.636Z,54.83
2023-12-11T12:50:42.184Z,46.00
2023-12-11T12:53:15.324Z,51.92
2023-12-11T12:55:43.418Z,39.63
2023-12-11T12:58:14.857Z,45.25
2023-12-11T13:00:44.702Z,39.63
2023-12-11T13:03:12.107Z,34.22
2023-12-11T13:05:45.712Z,33.05
2023-12-11T13:08:15.921Z,83.97
2023-12-11T13:10:57.695Z,56.83
2023-12-11T13:13:27.911Z,59.58
2023-12-11T13:15:57.411Z,74.90
2023-12-11T13:18:26.180Z,151.25
2023-12-11T13:20:53.807Z,89.83
2023-12-11T13:23:21.210Z,90.78
2023-12-11T13:25:49.043Z,95.03
2023-12-11T13:28:16.408Z,92.72
2023-12-11T13:30:44.122Z,113.20
2023-12-11T13:33:11.692Z,106.70
2023-12-11T13:35:39.376Z,88.50
2023-12-11T13:38:06.488Z,71.15
2023-12-11T13:40:34.093Z,82.55
2023-12-11T13:43:02.713Z,58.30
2023-12-11T13:45:30.248Z,66.23
2023-12-11T13:47:57.680Z,63.58
2023-12-11T13:50:25.379Z,81.55
2023-12-11T13:52:52.543Z,68.00
2023-12-11T13:55:20.263Z,67.30
2023-12-11T13:57:47.458Z,62.38
2023-12-11T14:00:16.531Z,61.28
2023-12-11T14:03:00.715Z,60.72
2023-12-11T14:05:34.317Z,52.53
2023-12-11T14:08:05.850Z,45.92
2023-12-11T14:10:34.815Z,53.75
2023-12-11T14:13:02.099Z,56.80
2023-12-11T14:15:30.501Z,51.92
2023-12-11T14:17:58.208Z,53.13
2023-12-11T14:20:26.065Z,57.30
2023-12-11T14:22:53.346Z,128.60
2023-12-11T14:25:22.493Z,141.05
2023-12-11T14:27:52.875Z,234.27
2023-12-11T14:30:20.813Z,200.68
2023-12-11T14:32:48.258Z,115.35
2023-12-11T14:35:15.989Z,109.57
2023-12-11T14:37:43.214Z,103.60
2023-12-11T14:40:11.251Z,84.00
2023-12-11T14:42:38.579Z,83.78
2023-12-11T14:45:08.440Z,88.15
2023-12-11T14:47:35.727Z,77.45
2023-12-11T14:50:03.614Z,67.10
2023-12-11T14:52:30.944Z,78.25
2023-12-11T14:54:58.617Z,85.13
2023-12-11T14:57:27.157Z,88.72
2023-12-11T14:59:54.567Z,80.30
2023-12-11T15:02:21.794Z,91.28
2023-12-11T15:04:49.170Z,90.82
2023-12-11T15:07:16.800Z,115.22
2023-12-11T15:09:44.264Z,102.68
2023-12-11T15:12:11.563Z,87.13
2023-12-11T15:14:39.357Z,72.63
2023-12-11T15:17:07.054Z,74.38
2023-12-11T15:19:34.732Z,65.18
2023-12-11T15:22:01.982Z,75.63
2023-12-11T15:24:29.438Z,70.60
2023-12-11T15:26:56.619Z,81.50
2023-12-11T15:29:24.119Z,74.72
2023-12-11T15:31:51.250Z,88.07
2023-12-11T15:34:18.775Z,116.45
2023-12-11T15:36:46.232Z,107.88
2023-12-11T15:39:13.751Z,85.45
2023-12-11T15:41:40.879Z,78.25
2023-12-11T15:44:08.851Z,76.10
2023-12-11T15:46:36.005Z,76.47
2023-12-11T15:49:03.642Z,70.85
2023-12-11T15:51:31.177Z,74.47
2023-12-11T15:53:58.621Z,62.80
2023-12-11T15:56:26.558Z,75.20
2023-12-11T15:58:54.243Z,73.03
2023-12-11T16:01:21.498Z,65.95
2023-12-11T16:03:49.111Z,63.22
2023-12-11T16:06:16.485Z,47.15
2023-12-11T16:08:43.951Z,48.17
2023-12-11T16:11:15.021Z,60.75
2023-12-11T16:13:43.365Z,58.83
2023-12-11T16:16:14.914Z,54.75
2023-12-11T16:18:45.078Z,44.22
2023-12-11T16:23:39.727Z,46.30
2023-12-11T16:26:13.014Z,43.58
2023-12-11T16:28:41.123Z,55.90
2023-12-11T16:31:08.401Z,50.40
2023-12-11T16:33:36.049Z,52.90
2023-12-11T16:36:03.606Z,51.33
2023-12-11T16:38:31.256Z,51.95
2023-12-11T16:40:58.419Z,54.35
2023-12-11T16:43:26.056Z,47.67
2023-12-11T16:45:53.272Z,47.58
2023-12-11T16:48:21.161Z,49.58
2023-12-11T16:50:49.016Z,51.53
2023-12-11T16:53:17.178Z,51.40
2023-12-11T16:55:44.353Z,58.85
2023-12-11T16:58:12.005Z,69.43
2023-12-11T17:00:40.140Z,66.90
2023-12-11T17:03:07.735Z,67.80
2023-12-11T17:05:35.213Z,59.58
2023-12-11T17:08:02.907Z,52.97
2023-12-11T17:10:30.228Z,51.38
2023-12-11T17:12:57.801Z,54.60
2023-12-11T17:15:26.481Z,60.65
2023-12-11T17:17:54.248Z,70.22
2023-12-11T17:20:21.477Z,87.72
2023-12-11T17:22:49.103Z,70.45
2023-12-11T17:25:16.463Z,60.28
2023-12-11T17:27:44.131Z,56.25
2023-12-11T17:30:12.062Z,55.67
2023-12-11T17:32:40.651Z,65.10
2023-12-11T17:35:08.241Z,102.80
2023-12-11T17:37:35.817Z,40.70
2023-12-11T17:40:03.430Z,35.50
2023-12-11T17:42:31.808Z,28.45
2023-12-11T17:45:00.125Z,29.60
2023-12-11T17:47:27.920Z,29.23
2023-12-11T17:49:55.068Z,28.88
2023-12-11T17:52:22.680Z,30.05
2023-12-11T17:54:50.315Z,33.80
2023-12-11T17:57:17.960Z,28.75
2023-12-11T17:59:45.287Z,28.75
2023-12-11T18:02:12.901Z,37.92
2023-12-11T18:04:40.176Z,51.08
2023-12-11T18:07:07.828Z,39.22
2023-12-11T18:09:38.125Z,78.22
2023-12-11T18:12:05.950Z,136.60
2023-12-11T18:14:33.133Z,108.57
2023-12-11T18:17:00.640Z,54.53
2023-12-11T18:19:28.064Z,41.38
2023-12-11T18:21:57.712Z,33.55
2023-12-11T18:24:26.735Z,32.50
2023-12-11T18:26:54.168Z,32.63
2023-12-11T18:29:23.964Z,42.33
2023-12-11T18:31:52.863Z,53.05
2023-12-11T18:34:20.203Z,43.22
2023-12-11T18:36:47.806Z,28.55
2023-12-11T18:39:14.946Z,25.85
2023-12-11T18:41:42.571Z,53.95
2023-12-11T18:44:10.933Z,100.45
2023-12-11T18:46:39.588Z,113.32
2023-12-11T18:49:06.760Z,52.55
2023-12-11T18:51:34.249Z,29.15
2023-12-11T18:54:01.463Z,21.63
2023-12-11T18:56:29.023Z,25.17
2023-12-11T18:58:56.188Z,31.50
2023-12-11T19:01:25.404Z,50.45
2023-12-11T19:03:52.950Z,65.63
2023-12-11T19:06:21.417Z,67.40
2023-12-11T19:08:48.553Z,94.00
2023-12-11T19:11:16.770Z,107.90
2023-12-11T19:13:43.973Z,99.60
2023-12-11T19:16:11.498Z,98.70
2023-12-11T19:18:38.716Z,93.70
2023-12-11T19:21:06.507Z,95.72
2023-12-11T19:23:33.756Z,126.85
2023-12-11T19:26:01.313Z,131.70
2023-12-11T19:28:28.568Z,133.50
2023-12-11T19:30:56.188Z,155.98
2023-12-11T19:33:23.545Z,139.25
2023-12-11T19:35:51.009Z,103.25
2023-12-11T19:38:18.366Z,117.90
2023-12-11T19:40:45.848Z,113.07
2023-12-11T19:43:13.375Z,100.57
2023-12-11T19:45:40.928Z,147.10
2023-12-11T19:48:08.185Z,130.48
2023-12-11T19:50:35.683Z,95.80
2023-12-11T19:53:02.789Z,79.63
2023-12-11T19:55:30.278Z,81.72
2023-12-11T19:57:57.441Z,76.57
2023-12-11T20:00:25.107Z,53.60
2023-12-11T20:02:52.288Z,56.97
2023-12-11T20:05:20.188Z,72.80
2023-12-11T20:07:47.487Z,43.28
2023-12-11T20:10:16.571Z,33.08
2023-12-11T20:12:43.671Z,35.80
2023-12-11T20:15:14.362Z,36.95
2023-12-11T20:17:42.114Z,39.42
2023-12-11T20:20:10.275Z,42.03
2023-12-11T20:22:37.471Z,47.40
2023-12-11T20:25:05.489Z,57.22
2023-12-11T20:27:33.453Z,90.43
2023-12-11T20:30:01.408Z,65.50
2023-12-11T20:32:28.862Z,104.47
2023-12-11T20:34:56.425Z,39.90
2023-12-11T20:37:23.664Z,34.22
2023-12-11T20:39:51.093Z,28.50
2023-12-11T20:42:20.905Z,28.60
2023-12-11T20:44:48.588Z,31.75
2023-12-11T20:47:15.830Z,31.77
2023-12-11T20:49:43.302Z,31.33
2023-12-11T20:52:10.651Z,35.17
2023-12-11T20:54:38.155Z,37.83
2023-12-11T20:57:05.550Z,40.03
2023-12-11T20:59:33.225Z,46.10
2023-12-11T21:02:01.150Z,49.35
2023-12-11T21:04:28.595Z,41.03
2023-12-11T21:06:56.873Z,37.08
2023-12-11T21:09:24.493Z,35.15
2023-12-11T21:11:51.875Z,39.75
2023-12-11T21:14:20.484Z,35.00
2023-12-11T21:16:47.769Z,39.90
2023-12-11T21:19:15.372Z,39.15
2023-12-11T21:21:42.481Z,60.38
2023-12-11T21:24:10.074Z,49.15
2023-12-11T21:26:37.903Z,44.63
2023-12-11T21:29:05.498Z,43.90
2023-12-11T21:31:33.422Z,53.17
2023-12-11T21:34:01.471Z,55.30
2023-12-11T21:36:32.510Z,59.65
2023-12-11T21:39:01.058Z,55.15
2023-12-11T21:41:28.901Z,59.75
2023-12-11T21:43:59.987Z,62.20
2023-12-11T21:46:27.767Z,62.78
2023-12-11T21:48:58.155Z,64.70
2023-12-11T21:51:27.493Z,63.72
2023-12-11T21:53:54.861Z,57.53
2023-12-11T21:56:25.345Z,37.72
2023-12-11T21:58:54.065Z,29.45
2023-12-11T22:01:21.516Z,30.67
2023-12-11T22:03:49.374Z,29.30
2023-12-11T22:06:16.731Z,31.17
2023-12-11T22:08:44.155Z,31.88
2023-12-11T22:11:15.098Z,34.55
2023-12-11T22:13:43.442Z,39.33
2023-12-11T22:16:10.728Z,37.03
2023-12-11T22:18:38.758Z,40.53
2023-12-11T22:21:06.330Z,37.28
2023-12-11T22:23:33.761Z,33.72
2023-12-11T22:26:00.901Z,33.45
2023-12-11T22:28:28.443Z,33.47
2023-12-11T22:30:56.027Z,37.08
2023-12-11T22:33:23.896Z,37.25
2023-12-11T22:35:51.022Z,34.95
2023-12-11T22:38:18.703Z,32.55
2023-12-11T22:40:45.904Z,22.00
2023-12-11T22:43:13.430Z,21.08
2023-12-11T22:45:40.559Z,21.25
2023-12-11T22:48:08.079Z,21.30
2023-12-11T22:50:35.403Z,21.42
2023-12-11T22:53:03.031Z,21.42
2023-12-11T22:55:30.381Z,22.20
2023-12-11T22:58:06.604Z,21.08
2023-12-11T23:00:41.269Z,21.08
2023-12-11T23:03:15.904Z,19.50
2023-12-11T23:05:44.307Z,20.90
2023-12-11T23:08:11.685Z,19.67
2023-12-11T23:10:38.822Z,19.38
2023-12-11T23:13:06.293Z,17.95
2023-12-11T23:15:33.519Z,15.38
2023-12-11T23:18:01.028Z,17.05
2023-12-11T23:20:28.214Z,15.80
2023-12-11T23:22:56.324Z,15.65
2023-12-11T23:25:23.774Z,14.32
2023-12-11T23:27:51.241Z,13.77
2023-12-11T23:30:18.456Z,14.13
2023-12-11T23:32:46.187Z,13.52
2023-12-11T23:35:13.445Z,13.90
2023-12-11T23:37:40.958Z,12.75
2023-12-11T23:40:08.768Z,14.05
2023-12-11T23:42:36.437Z,14.00
2023-12-11T23:45:03.788Z,14.38
2023-12-11T23:47:32.244Z,12.18
2023-12-11T23:50:00.124Z,10.98
2023-12-11T23:52:28.508Z,12.15
2023-12-11T23:54:55.726Z,11.52
2023-12-11T23:57:23.430Z,12.68
2023-12-11T23:59:50.631Z,14.52
